sensor_id;sensor_type;location;lat;lon;timestamp;P1;durP1;ratioP1;P2;durP2;ratioP2
1024;SDS011;501;48.214;11.350;2023-04-05T00:01:26;11.07;;;9.37;;
1024;SDS011;501;48.214;11.350;2023-04-05T00:03:53;14.10;;;10.43;;
1024;SDS011;501;48.214;11.350;2023-04-05T00:06:20;11.10;;;9.70;;
1024;SDS011;501;48.214;11.350;2023-04-05T00:08:53;14.10;;;10.10;;
1024;SDS011;501;48.214;11.350;2023-04-05T00:11:20;16.13;;;9.27;;
1024;SDS011;501;48.214;11.350;2023-04-05T00:13:46;14.80;;;10.00;;
1024;SDS011;501;48.214;11.350;2023-04-05T00:16:12;13.40;;;8.90;;
1024;SDS011;501;48.214;11.350;2023-04-05T00:18:39;11.43;;;9.47;;
1024;SDS011;501;48.214;11.350;2023-04-05T00:21:10;13.87;;;9.30;;
1024;SDS011;501;48.214;11.350;2023-04-05T00:23:38;16.50;;;10.30;;
1024;SDS011;501;48.214;11.350;2023-04-05T00:26:05;17.23;;;9.53;;
1024;SDS011;501;48.214;11.350;2023-04-05T00:28:31;10.87;;;9.63;;
1024;SDS011;501;48.214;11.350;2023-04-05T00:30:57;13.07;;;8.90;;
1024;SDS011;501;48.214;11.350;2023-04-05T00:33:23;14.87;;;10.17;;
1024;SDS011;501;48.214;11.350;2023-04-05T00:35:48;12.93;;;8.93;;
1024;SDS011;501;48.214;11.350;2023-04-05T00:38:14;12.60;;;9.43;;
1024;SDS011;501;48.214;11.350;2023-04-05T00:40:40;12.67;;;8.87;;
1024;SDS011;501;48.214;11.350;2023-04-05T00:43:06;11.13;;;9.07;;
1024;SDS011;501;48.214;11.350;2023-04-05T00:45:32;10.10;;;9.10;;
1024;SDS011;501;48.214;11.350;2023-04-05T00:47:57;13.33;;;10.60;;
1024;SDS011;501;48.214;11.350;2023-04-05T00:50:23;11.77;;;9.43;;
1024;SDS011;501;48.214;11.350;2023-04-05T00:52:49;15.63;;;9.57;;
1024;SDS011;501;48.214;11.350;2023-04-05T00:55:15;12.50;;;9.70;;
1024;SDS011;501;48.214;11.350;2023-04-05T00:57:41;12.97;;;9.83;;
1024;SDS011;501;48.214;11.350;2023-04-05T01:00:09;13.33;;;9.73;;
1024;SDS011;501;48.214;11.350;2023-04-05T01:02:47;12.20;;;10.23;;
1024;SDS011;501;48.214;11.350;2023-04-05T01:10:47;15.60;;;11.10;;
1024;SDS011;501;48.214;11.350;2023-04-05T01:13:19;17.43;;;10.80;;
1024;SDS011;501;48.214;11.350;2023-04-05T01:15:44;19.33;;;9.63;;
1024;SDS011;501;48.214;11.350;2023-04-05T01:18:11;12.63;;;10.10;;
1024;SDS011;501;48.214;11.350;2023-04-05T01:20:41;11.00;;;8.70;;
1024;SDS011;501;48.214;11.350;2023-04-05T01:37:12;13.00;;;9.30;;
1024;SDS011;501;48.214;11.350;2023-04-05T01:39:42;15.00;;;9.23;;
1024;SDS011;501;48.214;11.350;2023-04-05T01:42:11;13.50;;;9.57;;
1024;SDS011;501;48.214;11.350;2023-04-05T01:44:37;12.37;;;9.40;;
1024;SDS011;501;48.214;11.350;2023-04-05T01:47:02;11.20;;;8.50;;
1024;SDS011;501;48.214;11.350;2023-04-05T01:49:28;10.40;;;8.80;;
1024;SDS011;501;48.214;11.350;2023-04-05T01:51:54;10.97;;;8.90;;
1024;SDS011;501;48.214;11.350;2023-04-05T01:54:19;12.63;;;9.40;;
1024;SDS011;501;48.214;11.350;2023-04-05T01:56:45;11.37;;;9.70;;
1024;SDS011;501;48.214;11.350;2023-04-05T01:59:10;13.70;;;8.97;;
1024;SDS011;501;48.214;11.350;2023-04-05T02:01:36;14.87;;;9.57;;
1024;SDS011;501;48.214;11.350;2023-04-05T02:04:02;10.77;;;8.07;;
1024;SDS011;501;48.214;11.350;2023-04-05T02:06:27;15.50;;;10.50;;
1024;SDS011;501;48.214;11.350;2023-04-05T02:08:54;10.30;;;8.70;;
1024;SDS011;501;48.214;11.350;2023-04-05T02:11:20;18.23;;;9.13;;
1024;SDS011;501;48.214;11.350;2023-04-05T02:13:46;10.03;;;8.80;;
1024;SDS011;501;48.214;11.350;2023-04-05T02:16:11;14.93;;;8.97;;
1024;SDS011;501;48.214;11.350;2023-04-05T02:18:37;16.70;;;9.17;;
1024;SDS011;501;48.214;11.350;2023-04-05T02:21:03;12.00;;;8.80;;
1024;SDS011;501;48.214;11.350;2023-04-05T02:23:30;11.40;;;8.60;;
1024;SDS011;501;48.214;11.350;2023-04-05T02:25:57;13.80;;;9.33;;
1024;SDS011;501;48.214;11.350;2023-04-05T02:28:23;8.77;;;7.60;;
1024;SDS011;501;48.214;11.350;2023-04-05T02:30:48;12.93;;;9.53;;
1024;SDS011;501;48.214;11.350;2023-04-05T02:33:14;10.47;;;9.33;;
1024;SDS011;501;48.214;11.350;2023-04-05T02:35:40;10.60;;;8.90;;
1024;SDS011;501;48.214;11.350;2023-04-05T02:38:06;11.30;;;8.53;;
1024;SDS011;501;48.214;11.350;2023-04-05T02:40:31;10.70;;;9.03;;
1024;SDS011;501;48.214;11.350;2023-04-05T02:42:58;12.30;;;9.43;;
1024;SDS011;501;48.214;11.350;2023-04-05T02:45:24;14.33;;;8.30;;
1024;SDS011;501;48.214;11.350;2023-04-05T02:47:51;10.10;;;9.03;;
1024;SDS011;501;48.214;11.350;2023-04-05T02:50:17;12.93;;;10.57;;
1024;SDS011;501;48.214;11.350;2023-04-05T02:52:45;13.47;;;10.17;;
1024;SDS011;501;48.214;11.350;2023-04-05T02:55:12;12.67;;;9.30;;
1024;SDS011;501;48.214;11.350;2023-04-05T02:57:37;11.00;;;8.87;;
1024;SDS011;501;48.214;11.350;2023-04-05T03:00:04;14.73;;;9.50;;
1024;SDS011;501;48.214;11.350;2023-04-05T03:02:32;16.87;;;9.53;;
1024;SDS011;501;48.214;11.350;2023-04-05T03:04:57;12.10;;;9.70;;
1024;SDS011;501;48.214;11.350;2023-04-05T03:07:26;12.57;;;9.50;;
1024;SDS011;501;48.214;11.350;2023-04-05T03:09:52;12.63;;;9.60;;
1024;SDS011;501;48.214;11.350;2023-04-05T03:12:18;14.33;;;9.60;;
1024;SDS011;501;48.214;11.350;2023-04-05T03:14:43;15.90;;;10.40;;
1024;SDS011;501;48.214;11.350;2023-04-05T03:17:10;14.47;;;10.03;;
1024;SDS011;501;48.214;11.350;2023-04-05T03:19:36;10.97;;;9.00;;
1024;SDS011;501;48.214;11.350;2023-04-05T03:22:02;10.60;;;9.50;;
1024;SDS011;501;48.214;11.350;2023-04-05T03:24:28;15.53;;;9.70;;
1024;SDS011;501;48.214;11.350;2023-04-05T03:26:54;12.03;;;9.87;;
1024;SDS011;501;48.214;11.350;2023-04-05T03:29:20;11.13;;;9.60;;
1024;SDS011;501;48.214;11.350;2023-04-05T03:31:46;11.90;;;10.00;;
1024;SDS011;501;48.214;11.350;2023-04-05T03:34:13;17.73;;;10.20;;
1024;SDS011;501;48.214;11.350;2023-04-05T03:36:38;13.60;;;11.03;;
1024;SDS011;501;48.214;11.350;2023-04-05T03:39:10;13.37;;;10.13;;
1024;SDS011;501;48.214;11.350;2023-04-05T03:41:37;15.30;;;10.80;;
1024;SDS011;501;48.214;11.350;2023-04-05T03:44:03;13.77;;;10.37;;
1024;SDS011;501;48.214;11.350;2023-04-05T03:46:30;11.90;;;9.53;;
1024;SDS011;501;48.214;11.350;2023-04-05T03:48:56;13.13;;;9.00;;
1024;SDS011;501;48.214;11.350;2023-04-05T03:51:22;11.30;;;9.77;;
1024;SDS011;501;48.214;11.350;2023-04-05T03:53:48;14.43;;;12.73;;
1024;SDS011;501;48.214;11.350;2023-04-05T03:56:17;13.13;;;9.73;;
1024;SDS011;501;48.214;11.350;2023-04-05T03:58:43;12.80;;;9.77;;
1024;SDS011;501;48.214;11.350;2023-04-05T04:01:09;14.50;;;9.77;;
1024;SDS011;501;48.214;11.350;2023-04-05T04:03:35;13.93;;;9.80;;
1024;SDS011;501;48.214;11.350;2023-04-05T04:06:01;10.93;;;9.83;;
1024;SDS011;501;48.214;11.350;2023-04-05T04:08:28;10.53;;;9.43;;
1024;SDS011;501;48.214;11.350;2023-04-05T04:10:53;16.40;;;10.60;;
1024;SDS011;501;48.214;11.350;2023-04-05T04:13:19;15.30;;;10.27;;
1024;SDS011;501;48.214;11.350;2023-04-05T04:15:45;13.53;;;9.77;;
1024;SDS011;501;48.214;11.350;2023-04-05T04:18:11;11.30;;;9.47;;
1024;SDS011;501;48.214;11.350;2023-04-05T04:20:37;14.13;;;10.13;;
1024;SDS011;501;48.214;11.350;2023-04-05T04:23:03;14.90;;;9.70;;
1024;SDS011;501;48.214;11.350;2023-04-05T04:25:29;11.90;;;9.67;;
1024;SDS011;501;48.214;11.350;2023-04-05T04:27:54;13.20;;;10.00;;
1024;SDS011;501;48.214;11.350;2023-04-05T04:30:20;12.60;;;9.40;;
1024;SDS011;501;48.214;11.350;2023-04-05T04:32:46;13.40;;;10.00;;
1024;SDS011;501;48.214;11.350;2023-04-05T04:35:16;11.67;;;9.60;;
1024;SDS011;501;48.214;11.350;2023-04-05T04:37:45;13.70;;;9.47;;
1024;SDS011;501;48.214;11.350;2023-04-05T04:40:15;12.03;;;9.20;;
1024;SDS011;501;48.214;11.350;2023-04-05T04:42:43;15.23;;;8.93;;
1024;SDS011;501;48.214;11.350;2023-04-05T04:45:15;10.67;;;9.00;;
1024;SDS011;501;48.214;11.350;2023-04-05T04:47:42;10.40;;;9.40;;
1024;SDS011;501;48.214;11.350;2023-04-05T04:50:09;11.30;;;9.70;;
1024;SDS011;501;48.214;11.350;2023-04-05T04:52:35;11.70;;;9.40;;
1024;SDS011;501;48.214;11.350;2023-04-05T04:55:02;16.67;;;11.40;;
1024;SDS011;501;48.214;11.350;2023-04-05T04:57:28;11.60;;;9.30;;
1024;SDS011;501;48.214;11.350;2023-04-05T04:59:54;13.27;;;9.90;;
1024;SDS011;501;48.214;11.350;2023-04-05T05:02:23;11.97;;;9.90;;
1024;SDS011;501;48.214;11.350;2023-04-05T05:04:49;11.53;;;9.27;;
1024;SDS011;501;48.214;11.350;2023-04-05T05:07:15;13.17;;;8.80;;
1024;SDS011;501;48.214;11.350;2023-04-05T05:09:41;13.47;;;11.07;;
1024;SDS011;501;48.214;11.350;2023-04-05T05:12:07;13.87;;;11.87;;
1024;SDS011;501;48.214;11.350;2023-04-05T05:14:33;12.30;;;9.70;;
1024;SDS011;501;48.214;11.350;2023-04-05T05:16:59;12.90;;;10.73;;
1024;SDS011;501;48.214;11.350;2023-04-05T05:19:24;16.97;;;12.67;;
1024;SDS011;501;48.214;11.350;2023-04-05T05:21:50;13.37;;;9.80;;
1024;SDS011;501;48.214;11.350;2023-04-05T05:24:17;13.23;;;9.87;;
1024;SDS011;501;48.214;11.350;2023-04-05T05:26:44;13.47;;;8.80;;
1024;SDS011;501;48.214;11.350;2023-04-05T05:29:09;12.60;;;8.60;;
1024;SDS011;501;48.214;11.350;2023-04-05T05:31:35;14.40;;;10.77;;
1024;SDS011;501;48.214;11.350;2023-04-05T05:34:01;13.30;;;10.53;;
1024;SDS011;501;48.214;11.350;2023-04-05T05:36:26;8.93;;;8.03;;
1024;SDS011;501;48.214;11.350;2023-04-05T05:38:52;11.03;;;9.20;;
1024;SDS011;501;48.214;11.350;2023-04-05T05:41:18;11.50;;;8.23;;
1024;SDS011;501;48.214;11.350;2023-04-05T05:43:46;10.70;;;8.13;;
1024;SDS011;501;48.214;11.350;2023-04-05T05:46:12;11.07;;;8.80;;
1024;SDS011;501;48.214;11.350;2023-04-05T05:48:37;10.07;;;7.97;;
1024;SDS011;501;48.214;11.350;2023-04-05T05:51:03;12.67;;;8.97;;
1024;SDS011;501;48.214;11.350;2023-04-05T05:53:34;15.93;;;9.93;;
1024;SDS011;501;48.214;11.350;2023-04-05T05:56:03;13.77;;;8.87;;
1024;SDS011;501;48.214;11.350;2023-04-05T05:58:28;13.60;;;10.37;;
1024;SDS011;501;48.214;11.350;2023-04-05T06:00:54;16.97;;;10.47;;
1024;SDS011;501;48.214;11.350;2023-04-05T06:03:21;14.70;;;11.97;;
1024;SDS011;501;48.214;11.350;2023-04-05T06:05:54;19.00;;;14.00;;
1024;SDS011;501;48.214;11.350;2023-04-05T06:08:21;18.53;;;12.73;;
1024;SDS011;501;48.214;11.350;2023-04-05T06:10:48;15.27;;;10.50;;
1024;SDS011;501;48.214;11.350;2023-04-05T06:13:14;9.70;;;8.57;;
1024;SDS011;501;48.214;11.350;2023-04-05T06:15:43;16.73;;;12.03;;
1024;SDS011;501;48.214;11.350;2023-04-05T06:18:11;10.30;;;8.93;;
1024;SDS011;501;48.214;11.350;2023-04-05T06:20:36;18.87;;;12.50;;
1024;SDS011;501;48.214;11.350;2023-04-05T06:23:07;10.57;;;9.30;;
1024;SDS011;501;48.214;11.350;2023-04-05T06:25:33;15.40;;;10.77;;
1024;SDS011;501;48.214;11.350;2023-04-05T06:27:59;13.50;;;9.90;;
1024;SDS011;501;48.214;11.350;2023-04-05T06:30:26;14.03;;;9.20;;
1024;SDS011;501;48.214;11.350;2023-04-05T06:32:51;10.97;;;9.80;;
1024;SDS011;501;48.214;11.350;2023-04-05T06:35:21;16.27;;;12.03;;
1024;SDS011;501;48.214;11.350;2023-04-05T06:37:47;15.67;;;9.97;;
1024;SDS011;501;48.214;11.350;2023-04-05T06:40:13;12.00;;;9.30;;
1024;SDS011;501;48.214;11.350;2023-04-05T06:42:39;16.50;;;9.93;;
1024;SDS011;501;48.214;11.350;2023-04-05T06:45:05;10.83;;;9.37;;
1024;SDS011;501;48.214;11.350;2023-04-05T06:47:34;16.70;;;9.50;;
1024;SDS011;501;48.214;11.350;2023-04-05T06:50:01;9.50;;;7.47;;
1024;SDS011;501;48.214;11.350;2023-04-05T06:52:27;12.70;;;8.23;;
1024;SDS011;501;48.214;11.350;2023-04-05T06:54:53;10.27;;;8.40;;
1024;SDS011;501;48.214;11.350;2023-04-05T06:57:20;9.20;;;7.50;;
1024;SDS011;501;48.214;11.350;2023-04-05T06:59:46;10.57;;;7.40;;
1024;SDS011;501;48.214;11.350;2023-04-05T07:02:11;8.40;;;7.23;;
1024;SDS011;501;48.214;11.350;2023-04-05T07:04:37;9.13;;;8.13;;
1024;SDS011;501;48.214;11.350;2023-04-05T07:07:04;13.80;;;9.03;;
1024;SDS011;501;48.214;11.350;2023-04-05T07:09:33;8.67;;;7.50;;
1024;SDS011;501;48.214;11.350;2023-04-05T07:11:59;10.67;;;7.70;;
1024;SDS011;501;48.214;11.350;2023-04-05T07:14:28;11.33;;;8.37;;
1024;SDS011;501;48.214;11.350;2023-04-05T07:16:54;8.50;;;7.67;;
1024;SDS011;501;48.214;11.350;2023-04-05T07:19:20;12.20;;;7.50;;
1024;SDS011;501;48.214;11.350;2023-04-05T07:21:47;12.50;;;7.20;;
1024;SDS011;501;48.214;11.350;2023-04-05T07:24:13;9.80;;;7.87;;
1024;SDS011;501;48.214;11.350;2023-04-05T07:26:38;7.80;;;6.60;;
1024;SDS011;501;48.214;11.350;2023-04-05T07:29:04;9.17;;;7.57;;
1024;SDS011;501;48.214;11.350;2023-04-05T07:31:31;12.00;;;7.17;;
1024;SDS011;501;48.214;11.350;2023-04-05T07:33:58;6.90;;;6.27;;
1024;SDS011;501;48.214;11.350;2023-04-05T07:36:24;7.60;;;6.40;;
1024;SDS011;501;48.214;11.350;2023-04-05T07:38:51;6.63;;;5.43;;
1024;SDS011;501;48.214;11.350;2023-04-05T07:41:19;8.80;;;6.37;;
1024;SDS011;501;48.214;11.350;2023-04-05T07:43:45;8.07;;;6.07;;
1024;SDS011;501;48.214;11.350;2023-04-05T07:46:11;8.00;;;6.23;;
1024;SDS011;501;48.214;11.350;2023-04-05T07:48:36;7.20;;;5.30;;
1024;SDS011;501;48.214;11.350;2023-04-05T07:51:05;10.17;;;5.30;;
1024;SDS011;501;48.214;11.350;2023-04-05T07:53:32;11.70;;;6.27;;
1024;SDS011;501;48.214;11.350;2023-04-05T07:56:05;6.97;;;5.70;;
1024;SDS011;501;48.214;11.350;2023-04-05T07:58:32;6.90;;;6.20;;
1024;SDS011;501;48.214;11.350;2023-04-05T08:00:59;7.40;;;6.33;;
1024;SDS011;501;48.214;11.350;2023-04-05T08:03:28;7.87;;;6.33;;
1024;SDS011;501;48.214;11.350;2023-04-05T08:05:55;7.33;;;5.87;;
1024;SDS011;501;48.214;11.350;2023-04-05T08:08:23;7.57;;;6.30;;
1024;SDS011;501;48.214;11.350;2023-04-05T08:10:49;8.27;;;7.47;;
1024;SDS011;501;48.214;11.350;2023-04-05T08:13:15;9.00;;;7.20;;
1024;SDS011;501;48.214;11.350;2023-04-05T08:15:40;9.17;;;7.30;;
1024;SDS011;501;48.214;11.350;2023-04-05T08:18:06;8.33;;;5.70;;
1024;SDS011;501;48.214;11.350;2023-04-05T08:20:32;9.00;;;6.80;;
1024;SDS011;501;48.214;11.350;2023-04-05T08:23:03;6.60;;;6.00;;
1024;SDS011;501;48.214;11.350;2023-04-05T08:25:29;8.37;;;7.57;;
1024;SDS011;501;48.214;11.350;2023-04-05T08:27:54;8.60;;;6.87;;
1024;SDS011;501;48.214;11.350;2023-04-05T08:30:20;7.60;;;6.70;;
1024;SDS011;501;48.214;11.350;2023-04-05T08:32:47;7.03;;;6.13;;
1024;SDS011;501;48.214;11.350;2023-04-05T08:35:13;8.20;;;6.37;;
1024;SDS011;501;48.214;11.350;2023-04-05T08:37:39;11.10;;;6.50;;
1024;SDS011;501;48.214;11.350;2023-04-05T08:40:04;7.63;;;6.30;;
1024;SDS011;501;48.214;11.350;2023-04-05T08:42:36;8.70;;;7.20;;
1024;SDS011;501;48.214;11.350;2023-04-05T08:45:07;6.20;;;5.57;;
1024;SDS011;501;48.214;11.350;2023-04-05T08:47:35;8.70;;;5.90;;
1024;SDS011;501;48.214;11.350;2023-04-05T08:50:03;6.97;;;6.27;;
1024;SDS011;501;48.214;11.350;2023-04-05T08:52:29;7.00;;;5.60;;
1024;SDS011;501;48.214;11.350;2023-04-05T08:54:57;6.40;;;5.43;;
1024;SDS011;501;48.214;11.350;2023-04-05T08:57:25;6.10;;;5.40;;
1024;SDS011;501;48.214;11.350;2023-04-05T08:59:55;14.27;;;6.90;;
1024;SDS011;501;48.214;11.350;2023-04-05T09:02:22;7.40;;;5.60;;
1024;SDS011;501;48.214;11.350;2023-04-05T09:04:49;8.17;;;5.00;;
1024;SDS011;501;48.214;11.350;2023-04-05T09:07:16;5.97;;;5.37;;
1024;SDS011;501;48.214;11.350;2023-04-05T09:09:47;7.80;;;5.50;;
1024;SDS011;501;48.214;11.350;2023-04-05T09:12:21;8.10;;;6.27;;
1024;SDS011;501;48.214;11.350;2023-04-05T09:14:48;8.10;;;5.80;;
1024;SDS011;501;48.214;11.350;2023-04-05T09:17:16;8.07;;;5.13;;
1024;SDS011;501;48.214;11.350;2023-04-05T09:19:43;5.90;;;5.30;;
1024;SDS011;501;48.214;11.350;2023-04-05T09:22:09;6.87;;;5.57;;
1024;SDS011;501;48.214;11.350;2023-04-05T09:24:39;7.83;;;5.30;;
1024;SDS011;501;48.214;11.350;2023-04-05T09:29:37;7.20;;;4.87;;
1024;SDS011;501;48.214;11.350;2023-04-05T09:32:04;5.13;;;4.63;;
1024;SDS011;501;48.214;11.350;2023-04-05T09:34:32;6.63;;;5.27;;
1024;SDS011;501;48.214;11.350;2023-04-05T09:37:10;8.90;;;6.13;;
1024;SDS011;501;48.214;11.350;2023-04-05T09:39:39;9.57;;;4.70;;
1024;SDS011;501;48.214;11.350;2023-04-05T09:42:07;8.20;;;5.60;;
1024;SDS011;501;48.214;11.350;2023-04-05T09:44:48;6.03;;;5.00;;
1024;SDS011;501;48.214;11.350;2023-04-05T09:47:17;8.07;;;5.40;;
1024;SDS011;501;48.214;11.350;2023-04-05T09:49:44;4.40;;;4.00;;
1024;SDS011;501;48.214;11.350;2023-04-05T09:52:23;6.87;;;5.40;;
1024;SDS011;501;48.214;11.350;2023-04-05T09:54:54;6.00;;;5.40;;
1024;SDS011;501;48.214;11.350;2023-04-05T09:57:21;9.03;;;6.40;;
1024;SDS011;501;48.214;11.350;2023-04-05T09:59:50;6.53;;;4.83;;
1024;SDS011;501;48.214;11.350;2023-04-05T10:02:16;6.73;;;5.93;;
1024;SDS011;501;48.214;11.350;2023-04-05T10:04:45;7.07;;;5.80;;
1024;SDS011;501;48.214;11.350;2023-04-05T10:07:13;6.63;;;5.60;;
1024;SDS011;501;48.214;11.350;2023-04-05T10:09:40;5.70;;;5.00;;
1024;SDS011;501;48.214;11.350;2023-04-05T10:12:08;6.10;;;5.50;;
1024;SDS011;501;48.214;11.350;2023-04-05T10:14:36;8.73;;;5.47;;
1024;SDS011;501;48.214;11.350;2023-04-05T10:19:36;5.37;;;4.83;;
1024;SDS011;501;48.214;11.350;2023-04-05T10:22:23;4.93;;;4.43;;
1024;SDS011;501;48.214;11.350;2023-04-05T10:24:59;5.70;;;5.20;;
1024;SDS011;501;48.214;11.350;2023-04-05T10:28:04;6.73;;;5.47;;
1024;SDS011;501;48.214;11.350;2023-04-05T10:30:34;6.70;;;5.40;;
1024;SDS011;501;48.214;11.350;2023-04-05T10:33:09;5.83;;;5.17;;
1024;SDS011;501;48.214;11.350;2023-04-05T10:38:27;6.37;;;5.40;;
1024;SDS011;501;48.214;11.350;2023-04-05T10:40:56;5.30;;;4.60;;
1024;SDS011;501;48.214;11.350;2023-04-05T10:43:27;5.97;;;5.20;;
1024;SDS011;501;48.214;11.350;2023-04-05T10:45:55;8.30;;;5.67;;
1024;SDS011;501;48.214;11.350;2023-04-05T10:51:03;7.13;;;5.10;;
1024;SDS011;501;48.214;11.350;2023-04-05T10:53:30;6.90;;;4.93;;
1024;SDS011;501;48.214;11.350;2023-04-05T10:55:59;5.50;;;5.00;;
1024;SDS011;501;48.214;11.350;2023-04-05T10:58:26;6.37;;;5.70;;
1024;SDS011;501;48.214;11.350;2023-04-05T11:00:53;5.23;;;4.73;;
1024;SDS011;501;48.214;11.350;2023-04-05T11:06:17;6.43;;;5.37;;
1024;SDS011;501;48.214;11.350;2023-04-05T11:09:08;6.10;;;5.23;;
1024;SDS011;501;48.214;11.350;2023-04-05T11:11:39;7.50;;;5.27;;
1024;SDS011;501;48.214;11.350;2023-04-05T11:16:46;5.70;;;5.13;;
1024;SDS011;501;48.214;11.350;2023-04-05T11:19:16;4.90;;;4.50;;
1024;SDS011;501;48.214;11.350;2023-04-05T11:21:42;6.30;;;5.17;;
1024;SDS011;501;48.214;11.350;2023-04-05T11:24:11;6.13;;;5.53;;
1024;SDS011;501;48.214;11.350;2023-04-05T11:29:09;5.73;;;5.23;;
1024;SDS011;501;48.214;11.350;2023-04-05T11:31:35;6.17;;;5.57;;
1024;SDS011;501;48.214;11.350;2023-04-05T11:34:22;6.43;;;5.63;;
1024;SDS011;501;48.214;11.350;2023-04-05T11:36:48;6.10;;;5.47;;
1024;SDS011;501;48.214;11.350;2023-04-05T11:41:46;6.30;;;5.60;;
1024;SDS011;501;48.214;11.350;2023-04-05T11:44:18;7.00;;;6.30;;
1024;SDS011;501;48.214;11.350;2023-04-05T11:46:47;6.97;;;5.50;;
1024;SDS011;501;48.214;11.350;2023-04-05T11:49:13;7.70;;;6.07;;
1024;SDS011;501;48.214;11.350;2023-04-05T11:51:39;6.70;;;5.40;;
1024;SDS011;501;48.214;11.350;2023-04-05T11:54:08;6.53;;;5.73;;
1024;SDS011;501;48.214;11.350;2023-04-05T11:56:34;5.87;;;5.37;;
1024;SDS011;501;48.214;11.350;2023-04-05T11:59:00;6.27;;;5.70;;
1024;SDS011;501;48.214;11.350;2023-04-05T12:01:26;10.43;;;6.13;;
1024;SDS011;501;48.214;11.350;2023-04-05T12:03:52;6.37;;;5.73;;
1024;SDS011;501;48.214;11.350;2023-04-05T12:06:22;8.60;;;5.27;;
1024;SDS011;501;48.214;11.350;2023-04-05T12:08:49;8.13;;;5.90;;
1024;SDS011;501;48.214;11.350;2023-04-05T12:11:36;11.33;;;5.80;;
1024;SDS011;501;48.214;11.350;2023-04-05T12:14:05;6.00;;;5.40;;
1024;SDS011;501;48.214;11.350;2023-04-05T12:16:30;6.90;;;6.20;;
1024;SDS011;501;48.214;11.350;2023-04-05T12:18:56;6.77;;;6.20;;
1024;SDS011;501;48.214;11.350;2023-04-05T12:21:23;8.20;;;6.40;;
1024;SDS011;501;48.214;11.350;2023-04-05T12:23:50;6.07;;;5.30;;
1024;SDS011;501;48.214;11.350;2023-04-05T12:26:16;6.47;;;5.87;;
1024;SDS011;501;48.214;11.350;2023-04-05T12:31:15;7.13;;;6.27;;
1024;SDS011;501;48.214;11.350;2023-04-05T12:33:42;6.37;;;5.87;;
1024;SDS011;501;48.214;11.350;2023-04-05T12:36:08;6.80;;;5.93;;
1024;SDS011;501;48.214;11.350;2023-04-05T12:38:35;7.33;;;5.53;;
1024;SDS011;501;48.214;11.350;2023-04-05T12:41:02;7.40;;;6.70;;
1024;SDS011;501;48.214;11.350;2023-04-05T12:43:37;6.30;;;5.80;;
1024;SDS011;501;48.214;11.350;2023-04-05T12:46:16;6.20;;;5.60;;
1024;SDS011;501;48.214;11.350;2023-04-05T12:48:42;5.97;;;5.47;;
1024;SDS011;501;48.214;11.350;2023-04-05T12:51:14;6.43;;;5.83;;
1024;SDS011;501;48.214;11.350;2023-04-05T12:53:44;6.83;;;5.67;;
1024;SDS011;501;48.214;11.350;2023-04-05T12:56:11;5.60;;;5.17;;
1024;SDS011;501;48.214;11.350;2023-04-05T12:58:38;7.60;;;6.73;;
1024;SDS011;501;48.214;11.350;2023-04-05T13:01:04;6.47;;;5.80;;
1024;SDS011;501;48.214;11.350;2023-04-05T13:03:31;5.80;;;5.27;;
1024;SDS011;501;48.214;11.350;2023-04-05T13:05:56;7.07;;;6.37;;
1024;SDS011;501;48.214;11.350;2023-04-05T13:08:25;6.57;;;5.97;;
1024;SDS011;501;48.214;11.350;2023-04-05T13:10:51;5.70;;;5.13;;
1024;SDS011;501;48.214;11.350;2023-04-05T13:13:17;6.47;;;5.80;;
1024;SDS011;501;48.214;11.350;2023-04-05T13:15:46;7.10;;;6.40;;
1024;SDS011;501;48.214;11.350;2023-04-05T13:18:12;5.57;;;5.07;;
1024;SDS011;501;48.214;11.350;2023-04-05T13:20:39;7.00;;;6.33;;
1024;SDS011;501;48.214;11.350;2023-04-05T13:23:08;6.10;;;5.50;;
1024;SDS011;501;48.214;11.350;2023-04-05T13:25:40;6.50;;;5.90;;
1024;SDS011;501;48.214;11.350;2023-04-05T13:28:07;8.83;;;5.50;;
1024;SDS011;501;48.214;11.350;2023-04-05T13:30:33;6.10;;;5.53;;
1024;SDS011;501;48.214;11.350;2023-04-05T13:32:59;9.67;;;6.50;;
1024;SDS011;501;48.214;11.350;2023-04-05T13:35:25;7.20;;;6.60;;
1024;SDS011;501;48.214;11.350;2023-04-05T13:37:51;6.70;;;6.10;;
1024;SDS011;501;48.214;11.350;2023-04-05T13:40:16;6.17;;;5.60;;
1024;SDS011;501;48.214;11.350;2023-04-05T13:42:42;6.93;;;5.90;;
1024;SDS011;501;48.214;11.350;2023-04-05T13:45:08;6.73;;;6.10;;
1024;SDS011;501;48.214;11.350;2023-04-05T13:47:34;7.23;;;6.43;;
1024;SDS011;501;48.214;11.350;2023-04-05T13:50:00;7.43;;;5.83;;
1024;SDS011;501;48.214;11.350;2023-04-05T13:52:27;6.30;;;5.60;;
1024;SDS011;501;48.214;11.350;2023-04-05T13:54:52;6.80;;;6.20;;
1024;SDS011;501;48.214;11.350;2023-04-05T13:57:21;6.93;;;6.30;;
1024;SDS011;501;48.214;11.350;2023-04-05T13:59:47;6.10;;;5.50;;
1024;SDS011;501;48.214;11.350;2023-04-05T14:02:13;5.93;;;5.30;;
1024;SDS011;501;48.214;11.350;2023-04-05T14:04:39;6.63;;;6.03;;
1024;SDS011;501;48.214;11.350;2023-04-05T14:07:05;5.50;;;5.00;;
1024;SDS011;501;48.214;11.350;2023-04-05T14:09:31;7.00;;;5.90;;
1024;SDS011;501;48.214;11.350;2023-04-05T14:12:00;5.60;;;5.00;;
1024;SDS011;501;48.214;11.350;2023-04-05T14:14:27;7.00;;;6.40;;
1024;SDS011;501;48.214;11.350;2023-04-05T14:16:53;5.73;;;5.30;;
1024;SDS011;501;48.214;11.350;2023-04-05T14:19:18;5.87;;;5.37;;
1024;SDS011;501;48.214;11.350;2023-04-05T14:21:44;8.33;;;6.10;;
1024;SDS011;501;48.214;11.350;2023-04-05T14:24:11;6.00;;;5.40;;
1024;SDS011;501;48.214;11.350;2023-04-05T14:26:36;8.87;;;5.40;;
1024;SDS011;501;48.214;11.350;2023-04-05T14:29:02;5.63;;;5.13;;
1024;SDS011;501;48.214;11.350;2023-04-05T14:31:28;5.70;;;5.20;;
1024;SDS011;501;48.214;11.350;2023-04-05T14:33:54;5.73;;;5.23;;
1024;SDS011;501;48.214;11.350;2023-04-05T14:36:20;6.67;;;5.67;;
1024;SDS011;501;48.214;11.350;2023-04-05T14:38:45;6.13;;;4.97;;
1024;SDS011;501;48.214;11.350;2023-04-05T14:41:11;5.90;;;5.30;;
1024;SDS011;501;48.214;11.350;2023-04-05T14:43:37;6.20;;;5.70;;
1024;SDS011;501;48.214;11.350;2023-04-05T14:46:03;6.23;;;5.73;;
1024;SDS011;501;48.214;11.350;2023-04-05T14:48:29;5.83;;;5.30;;
1024;SDS011;501;48.214;11.350;2023-04-05T14:50:56;5.60;;;5.10;;
1024;SDS011;501;48.214;11.350;2023-04-05T14:53:23;5.70;;;5.20;;
1024;SDS011;501;48.214;11.350;2023-04-05T14:55:49;6.10;;;5.53;;
1024;SDS011;501;48.214;11.350;2023-04-05T14:58:15;7.87;;;5.80;;
1024;SDS011;501;48.214;11.350;2023-04-05T15:00:41;6.10;;;5.50;;
1024;SDS011;501;48.214;11.350;2023-04-05T15:03:11;6.37;;;5.77;;
1024;SDS011;501;48.214;11.350;2023-04-05T15:05:37;6.73;;;5.57;;
1024;SDS011;501;48.214;11.350;2023-04-05T15:08:03;6.20;;;5.30;;
1024;SDS011;501;48.214;11.350;2023-04-05T15:10:28;7.30;;;6.10;;
1024;SDS011;501;48.214;11.350;2023-04-05T15:12:54;5.23;;;4.83;;
1024;SDS011;501;48.214;11.350;2023-04-05T15:15:20;5.93;;;5.10;;
1024;SDS011;501;48.214;11.350;2023-04-05T15:17:46;5.83;;;5.33;;
1024;SDS011;501;48.214;11.350;2023-04-05T15:20:12;5.47;;;4.97;;
1024;SDS011;501;48.214;11.350;2023-04-05T15:22:38;6.13;;;5.13;;
1024;SDS011;501;48.214;11.350;2023-04-05T15:25:07;5.60;;;5.10;;
1024;SDS011;501;48.214;11.350;2023-04-05T15:27:33;5.57;;;4.90;;
1024;SDS011;501;48.214;11.350;2023-04-05T15:29:59;5.63;;;5.13;;
1024;SDS011;501;48.214;11.350;2023-04-05T15:32:24;6.40;;;5.43;;
1024;SDS011;501;48.214;11.350;2023-04-05T15:34:50;5.43;;;4.93;;
1024;SDS011;501;48.214;11.350;2023-04-05T15:37:16;10.10;;;5.73;;
1024;SDS011;501;48.214;11.350;2023-04-05T15:39:42;5.27;;;4.87;;
1024;SDS011;501;48.214;11.350;2023-04-05T15:42:07;6.20;;;5.60;;
1024;SDS011;501;48.214;11.350;2023-04-05T15:44:33;5.10;;;4.70;;
1024;SDS011;501;48.214;11.350;2023-04-05T15:46:59;5.57;;;5.07;;
1024;SDS011;501;48.214;11.350;2023-04-05T15:49:24;9.20;;;5.60;;
1024;SDS011;501;48.214;11.350;2023-04-05T15:51:50;5.30;;;4.80;;